^^
Station Historical Data
Daily Summary for February 14, 2018 Units:  Metric    English   Both
« Previous Day
Next Day »
Daily Weekly Monthly Yearly Custom
  High: Low: Average:
Temperature: -17.8 °C 2.6 °C 10.8 °C
Dew Point: -17.8 °C -6.4 °C -4.3 °C
Humidity: Humidity% 24% 35%
Wind Speed: 0km/h 0km/h 12.4km/h
Wind Gust: 0km/h - -
Wind- - WSW
Pressure: 0 hPa 1000.2 hPa -
Precipitation: 0 mm    
Historical Graphs
 
 
Tabular Data for February 14, 2018
Time Temperature Dew Point Pressure Wind Wind Speed Wind Gust Humidity Rainfall Rate (Hourly) solar Conditions
-17.8 °C -17.8 °C 0 hPa Calm     Humidity% 0 mm SoftwareType W/m2 Conditions
00:03 2.6 °C -4.4 °C 1014.4 hPa SSE 5.6 km/h 5.6 km/h 60% 0 mm WeatherDisplay:10.37 W/m2 RA
00:08 2.8 °C -4.4 °C 1014.4 hPa SSE 6.4 km/h 6.4 km/h 59% 0 mm WeatherDisplay:10.37 W/m2 RA
00:13 3.3 °C -4.4 °C 1014.1 hPa Calm     57% 0 mm WeatherDisplay:10.37 W/m2 CLR
00:18 3.5 °C -4.4 °C 1013.8 hPa SSE 1.9 km/h 1.9 km/h 56% 0 mm WeatherDisplay:10.37 W/m2 CLR
00:23 4.2 °C -4.5 °C 1013.8 hPa South 9.7 km/h 9.7 km/h 53% 0 mm WeatherDisplay:10.37 W/m2 CLR
00:28 5.1 °C -4.3 °C 1013.4 hPa South 4.8 km/h 4.8 km/h 51% 0 mm WeatherDisplay:10.37 W/m2 CLR
00:33 5.1 °C -4.5 °C 1013.4 hPa SSW 5.6 km/h 5.6 km/h 50% 0 mm WeatherDisplay:10.37 W/m2 CLR
00:38 5.2 °C -4.4 °C 1013.1 hPa Calm     50% 0 mm WeatherDisplay:10.37 W/m2 CLR
00:43 4.9 °C -4.4 °C 1013.4 hPa SW 5.6 km/h 5.6 km/h 51% 0 mm WeatherDisplay:10.37 W/m2 CLR
00:48 4.7 °C -4.6 °C 1013.1 hPa SW 4.8 km/h 4.8 km/h 51% 0 mm WeatherDisplay:10.37 W/m2 CLR
00:53 4 °C -4.7 °C 1013.4 hPa West 4.8 km/h 4.8 km/h 53% 0 mm WeatherDisplay:10.37 W/m2 CLR
00:58 3.7 °C -4.6 °C 1013.4 hPa WNW 1.9 km/h 1.9 km/h 55% 0 mm WeatherDisplay:10.37 W/m2 CLR
01:03 3.5 °C -4.4 °C 1011.1 hPa SE 5.6 km/h 5.6 km/h 56% 0 mm WeatherDisplay:10.37 W/m2 CLR
01:08 3.5 °C -4.4 °C 1011.1 hPa West 1.9 km/h   56% 0 mm WeatherDisplay:10.37 W/m2 CLR
01:13 3.9 °C -5.1 °C 1011.4 hPa West 5.6 km/h 5.6 km/h 52% 0 mm WeatherDisplay:10.37 W/m2 CLR
01:18 4.3 °C -4.7 °C 1010.7 hPa West 3.7 km/h 3.7 km/h 52% 0 mm WeatherDisplay:10.37 W/m2 CLR
01:23 4.9 °C -4.7 °C 1011.1 hPa West 3.2 km/h 3.2 km/h 50% 0 mm WeatherDisplay:10.37 W/m2 CLR
01:28 5.8 °C -4.9 °C 1010.4 hPa WSW 18.5 km/h 18.5 km/h 46% 0 mm WeatherDisplay:10.37 W/m2 CLR
01:33 7.2 °C -4.6 °C 1010 hPa WSW 11.1 km/h 11.1 km/h 43% 0 mm WeatherDisplay:10.37 W/m2 CLR
01:38 8.1 °C -4.8 °C 1009.7 hPa WSW 18.5 km/h 18.5 km/h 40% 0 mm WeatherDisplay:10.37 W/m2 CLR
01:43 8.6 °C -4.6 °C 1009.7 hPa WSW 8 km/h 8 km/h 39% 0 mm WeatherDisplay:10.37 W/m2 CLR
01:48 9 °C -4.9 °C 1009.4 hPa West 9.3 km/h 9.3 km/h 37% 0 mm WeatherDisplay:10.37 W/m2 CLR
01:53 9.3 °C -5 °C 1009.4 hPa SW 5.6 km/h 8.9 km/h 36% 0 mm WeatherDisplay:10.37 W/m2 CLR
01:58 9.7 °C -5.1 °C 1009.4 hPa WNW 7.4 km/h 7.4 km/h 35% 0 mm WeatherDisplay:10.37 W/m2 CLR
02:03 9.8 °C -4.9 °C 1008.7 hPa WSW 5.6 km/h 5.6 km/h 35% 0 mm WeatherDisplay:10.37 W/m2 CLR
02:08 9.7 °C -5.1 °C 1008.4 hPa WSW 14.8 km/h 14.8 km/h 35% 0 mm WeatherDisplay:10.37 W/m2 CLR
02:13 9.6 °C -4.8 °C 1008.7 hPa WSW 16.7 km/h 16.7 km/h 36% 0 mm WeatherDisplay:10.37 W/m2 CLR
02:18 9.4 °C -5.3 °C 1008.4 hPa West 5.6 km/h 5.6 km/h 35% 0 mm WeatherDisplay:10.37 W/m2 CLR
02:23 9.4 °C -5.3 °C 1008.4 hPa NW 8 km/h 8 km/h 35% 0 mm WeatherDisplay:10.37 W/m2 CLR
02:28 9.4 °C -5.3 °C 1008.4 hPa North 14.5 km/h 14.5 km/h 35% 0 mm WeatherDisplay:10.37 W/m2 CLR
02:33 9.3 °C -5.4 °C 1008.4 hPa West 4.8 km/h 4.8 km/h 35% 0 mm WeatherDisplay:10.37 W/m2 CLR
02:38 9.3 °C -5.4 °C 1008.4 hPa Calm     35% 0 mm WeatherDisplay:10.37 W/m2 CLR
02:43 9.2 °C -5.5 °C 1008.4 hPa WSW 5.6 km/h   35% 0 mm WeatherDisplay:10.37 W/m2 CLR
02:48 9.3 °C -5.4 °C 1008.4 hPa WSW 3.7 km/h 3.7 km/h 35% 0 mm WeatherDisplay:10.37 W/m2 CLR
02:53 9.2 °C -5.1 °C 1008.4 hPa SW 5.6 km/h 5.6 km/h 36% 0 mm WeatherDisplay:10.37 W/m2 CLR
02:58 9.2 °C -5.5 °C 1008 hPa SW 5.6 km/h 5.6 km/h 35% 0 mm WeatherDisplay:10.37 W/m2 CLR
03:03 9.2 °C -5.5 °C 1008.7 hPa South 9.3 km/h 9.3 km/h 35% 0 mm WeatherDisplay:10.37 W/m2 CLR
03:08 9.3 °C -5.8 °C 1008.7 hPa SE 9.3 km/h 9.3 km/h 34% 0 mm WeatherDisplay:10.37 W/m2 CLR
03:13 9 °C -5.3 °C 1008.4 hPa SE 9.7 km/h 9.7 km/h 36% 0 mm WeatherDisplay:10.37 W/m2 CLR
03:19 8.8 °C -6.2 °C 1008.7 hPa South 11.1 km/h 11.1 km/h 34% 0 mm WeatherDisplay:10.37 W/m2 CLR
03:23 9.3 °C -5.8 °C 1008.7 hPa SSE 16.7 km/h 16.7 km/h 34% 0 mm WeatherDisplay:10.37 W/m2 CLR
03:29 9.3 °C -5.8 °C 1008.4 hPa ESE 11.1 km/h 11.1 km/h 34% 0 mm WeatherDisplay:10.37 W/m2 CLR
03:34 9.2 °C -5.9 °C 1008.4 hPa SE 11.1 km/h 11.1 km/h 34% 0 mm WeatherDisplay:10.37 W/m2 CLR
03:39 8.9 °C -5.4 °C 1008 hPa East 16.1 km/h 16.1 km/h 36% 0 mm WeatherDisplay:10.37 W/m2 CLR
03:44 9.1 °C -5.9 °C 1008.4 hPa ESE 16.7 km/h 16.7 km/h 34% 0 mm WeatherDisplay:10.37 W/m2 CLR
03:49 9.3 °C -5.8 °C 1008.4 hPa ESE 8 km/h 8 km/h 34% 0 mm WeatherDisplay:10.37 W/m2 CLR
03:54 9.1 °C -5.6 °C 1008.4 hPa ESE 5.6 km/h 5.6 km/h 35% 0 mm WeatherDisplay:10.37 W/m2 CLR
03:59 8.7 °C -5.6 °C 1008.4 hPa South 9.3 km/h 9.3 km/h 36% 0 mm WeatherDisplay:10.37 W/m2 CLR
04:04 8.6 °C -6.1 °C 1009 hPa SSE 7.4 km/h 7.4 km/h 35% 0 mm WeatherDisplay:10.37 W/m2 CLR
04:09 9.2 °C -5.9 °C 1008.4 hPa SSW 11.1 km/h 11.1 km/h 34% 0 mm WeatherDisplay:10.37 W/m2 CLR
04:14 9.3 °C -5.8 °C 1008.4 hPa South 7.4 km/h 7.4 km/h 34% 0 mm WeatherDisplay:10.37 W/m2 CLR
04:19 9.4 °C -6.4 °C 1008.4 hPa SSE 3.7 km/h 3.7 km/h 32% 0 mm WeatherDisplay:10.37 W/m2 CLR
04:24 9.6 °C -6.3 °C 1008.4 hPa SSE 3.7 km/h   32% 0 mm WeatherDisplay:10.37 W/m2 CLR
04:29 9.5 °C -5.6 °C 1008.7 hPa Calm     34% 0 mm WeatherDisplay:10.37 W/m2 CLR
04:34 9.1 °C -6 °C 1008.4 hPa SSW 3.7 km/h 3.7 km/h 34% 0 mm WeatherDisplay:10.37 W/m2 CLR
04:39 9 °C -6.1 °C 1008.4 hPa West 3.7 km/h 3.7 km/h 34% 0 mm WeatherDisplay:10.37 W/m2 CLR
04:44 8.9 °C -5.7 °C 1008.4 hPa SSE 7.4 km/h 7.4 km/h 35% 0 mm WeatherDisplay:10.37 W/m2 CLR
04:49 9.2 °C -5.9 °C 1008.4 hPa South 5.6 km/h 5.6 km/h 34% 0 mm WeatherDisplay:10.37 W/m2 CLR
04:54 9.4 °C -6.1 °C 1008.4 hPa South 24.1 km/h 24.1 km/h 33% 0 mm WeatherDisplay:10.37 W/m2 CLR
04:59 9.9 °C -5.7 °C 1008 hPa SW 5.6 km/h 5.6 km/h 33% 0 mm WeatherDisplay:10.37 W/m2 CLR
05:04 10.1 °C -5.1 °C 1009.4 hPa SSW 5.6 km/h 5.6 km/h 34% 0 mm WeatherDisplay:10.37 W/m2 CLR
05:09 9.8 °C -4.6 °C 1009 hPa SW 11.3 km/h 11.3 km/h 36% 0 mm WeatherDisplay:10.37 W/m2 CLR
05:14 9.6 °C -5.2 °C 1009.4 hPa SW 5.6 km/h 5.6 km/h 35% 0 mm WeatherDisplay:10.37 W/m2 CLR
05:19 9.5 °C -5.2 °C 1009 hPa SSW 11.1 km/h 11.1 km/h 35% 0 mm WeatherDisplay:10.37 W/m2 CLR
05:24 9.3 °C -4.7 °C 1009.4 hPa WSW 5.6 km/h 5.6 km/h 37% 0 mm WeatherDisplay:10.37 W/m2 CLR
05:29 9.2 °C -5.1 °C 1009.4 hPa WSW 6.4 km/h 6.4 km/h 36% 0 mm WeatherDisplay:10.37 W/m2 CLR
05:34 9.2 °C -5.1 °C 1009 hPa NNW 1.9 km/h 1.9 km/h 36% 0 mm WeatherDisplay:10.37 W/m2 CLR
05:39 9.2 °C -5.2 °C 1009 hPa NNW 3.7 km/h 3.7 km/h 36% 0 mm WeatherDisplay:10.37 W/m2 CLR
05:44 9.2 °C -5.5 °C 1009 hPa WNW 5.6 km/h 5.6 km/h 35% 0 mm WeatherDisplay:10.37 W/m2 CLR
05:49 9.3 °C -5.4 °C 1009.4 hPa WSW 5.6 km/h 5.6 km/h 35% 0 mm WeatherDisplay:10.37 W/m2 CLR
05:54 9.2 °C -5.1 °C 1009 hPa SW 7.4 km/h 7.4 km/h 36% 0 mm WeatherDisplay:10.37 W/m2 CLR
05:59 9 °C -5.3 °C 1009.4 hPa SW 16.7 km/h 16.7 km/h 36% 0 mm WeatherDisplay:10.37 W/m2 CLR
06:04 9.1 °C -5.6 °C 1009 hPa WSW 4.8 km/h 4.8 km/h 35% 0 mm WeatherDisplay:10.37 W/m2 CLR
06:09 9.2 °C -5.5 °C 1009 hPa SSW 12.9 km/h 12.9 km/h 35% 0 mm WeatherDisplay:10.37 W/m2 CLR
06:14 9.3 °C -5.4 °C 1009 hPa West 9.3 km/h 9.3 km/h 35% 0 mm WeatherDisplay:10.37 W/m2 CLR
06:19 9.5 °C -5.6 °C 1008.7 hPa WSW 9.3 km/h 9.3 km/h 34% 0 mm WeatherDisplay:10.37 W/m2 CLR
06:24 9.6 °C -5.6 °C 1009 hPa West 9.3 km/h 9.3 km/h 34% 0 mm WeatherDisplay:10.37 W/m2 CLR
06:29 9.6 °C -5.1 °C 1009 hPa WSW 5.6 km/h 5.6 km/h 35% 0 mm WeatherDisplay:10.37 W/m2 CLR
06:34 9.5 °C -5.2 °C 1009 hPa SSW 6.4 km/h 6.4 km/h 35% 0 mm WeatherDisplay:10.37 W/m2 CLR
06:39 9.4 °C -5.3 °C 1008.7 hPa WSW 11.3 km/h 11.3 km/h 35% 0 mm WeatherDisplay:10.37 W/m2 CLR
06:44 9.8 °C -5.8 °C 1008.7 hPa West 29.6 km/h 29.6 km/h 33% 0 mm WeatherDisplay:10.37 W/m2 CLR
06:49 10.2 °C -5.4 °C 1008.4 hPa WNW 25.9 km/h 25.9 km/h 33% 0 mm WeatherDisplay:10.37 W/m2 CLR
06:54 10.3 °C -5.3 °C 1008.4 hPa West 22.2 km/h 22.2 km/h 33% 0 mm WeatherDisplay:10.37 W/m2 CLR
06:59 10.3 °C -5.3 °C 1008 hPa West 16.7 km/h 16.7 km/h 33% 0 mm WeatherDisplay:10.37 W/m2 CLR
07:04 10.6 °C -5.5 °C 1008.7 hPa SW 22.2 km/h 22.2 km/h 32% 0 mm WeatherDisplay:10.37 W/m2 CLR
07:09 10.6 °C -5 °C 1008.7 hPa West 22.2 km/h 22.2 km/h 33% 0 mm WeatherDisplay:10.37 W/m2 CLR
07:14 10.6 °C -5 °C 1008.7 hPa West 20.4 km/h 20.4 km/h 33% 0 mm WeatherDisplay:10.37 W/m2 CLR
07:19 10.6 °C -5.1 °C 1008.7 hPa ESE 11.1 km/h 11.1 km/h 33% 0 mm WeatherDisplay:10.37 W/m2 CLR
07:24 10.7 °C -5.4 °C 1008.4 hPa South 20.4 km/h 20.4 km/h 32% 0 mm WeatherDisplay:10.37 W/m2 CLR
07:29 10.8 °C -5.3 °C 1008.4 hPa SW 20.9 km/h 20.9 km/h 32% 0 mm WeatherDisplay:10.37 W/m2 CLR
07:34 11 °C -5.5 °C 1008 hPa SSW 18.5 km/h 18.5 km/h 31% 0 mm WeatherDisplay:10.37 W/m2 CLR
07:39 11 °C -5.1 °C 1008.4 hPa West 18.5 km/h 18.5 km/h 32% 0 mm WeatherDisplay:10.37 W/m2 CLR
07:44 11.1 °C -5.4 °C 1008.4 hPa SSW 18.5 km/h 18.5 km/h 31% 0 mm WeatherDisplay:10.37 W/m2 CLR
07:49 11.1 °C -5 °C 1008.4 hPa WSW 9.3 km/h 9.3 km/h 32% 0 mm WeatherDisplay:10.37 W/m2 CLR
07:54 11.1 °C -4.6 °C 1008.4 hPa SSW 20.4 km/h 20.4 km/h 33% 0 mm WeatherDisplay:10.37 W/m2 CLR
07:59 11.1 °C -5 °C 1008.4 hPa West 20.4 km/h 20.4 km/h 32% 0 mm WeatherDisplay:10.37 W/m2 CLR
08:04 11.3 °C -4.8 °C 1008.7 hPa WSW 31.5 km/h 31.5 km/h 32% 0 mm WeatherDisplay:10.37 W/m2 CLR
08:09 11.4 °C -4.7 °C 1008.7 hPa SW 17.7 km/h 17.7 km/h 32% 0 mm WeatherDisplay:10.37 W/m2 CLR
08:14 11.6 °C -4.6 °C 1008.7 hPa West 22.2 km/h 22.2 km/h 32% 0 mm WeatherDisplay:10.37 W/m2 CLR
08:19 11.7 °C -4.5 °C 1008.7 hPa WNW 27.8 km/h 27.8 km/h 32% 0 mm WeatherDisplay:10.37 W/m2 CLR
08:24 11.6 °C -4.2 °C 1008.4 hPa WSW 9.7 km/h 9.7 km/h 33% 0 mm WeatherDisplay:10.37 W/m2 CLR
08:29 11.4 °C -3.9 °C 1008.4 hPa WSW 22.2 km/h 22.2 km/h 34% 0 mm WeatherDisplay:10.37 W/m2 CLR
08:34 11.4 °C -3.9 °C 1008.4 hPa WSW 17.7 km/h 17.7 km/h 34% 0 mm WeatherDisplay:10.37 W/m2 CLR
08:39 11.3 °C -4 °C 1008.7 hPa West 9.3 km/h 9.3 km/h 34% 0 mm WeatherDisplay:10.37 W/m2 CLR
08:44 11.3 °C -4 °C 1008.4 hPa West 7.4 km/h 7.4 km/h 34% 0 mm WeatherDisplay:10.37 W/m2 CLR
08:49 11.5 °C -4.2 °C 1008.7 hPa WSW 11.1 km/h 11.1 km/h 33% 0 mm WeatherDisplay:10.37 W/m2 CLR
08:54 11.7 °C -3.3 °C 1008.4 hPa WSW 7.4 km/h 7.4 km/h 35% 0 mm WeatherDisplay:10.37 W/m2 CLR
08:59 11.8 °C -3.2 °C 1008.4 hPa South 19.3 km/h 19.3 km/h 35% 0 mm WeatherDisplay:10.37 W/m2 CLR
09:04 12.4 °C -3.4 °C 1008.7 hPa SW 20.4 km/h 20.4 km/h 33% 0 mm WeatherDisplay:10.37 W/m2 CLR
09:09 13 °C -3.3 °C 1008.4 hPa North 29.6 km/h 29.6 km/h 32% 0 mm WeatherDisplay:10.37 W/m2 CLR
09:14 13.4 °C -2.9 °C 1008.7 hPa West 29.6 km/h 29.6 km/h 32% 0 mm WeatherDisplay:10.37 W/m2 CLR
09:20 13.7 °C -3.2 °C 1008 hPa SSW 22.2 km/h 22.2 km/h 31% 0 mm WeatherDisplay:10.37 W/m2 CLR
09:25 13.9 °C -3 °C 1008 hPa SW 20.4 km/h 20.4 km/h 31% 0 mm WeatherDisplay:10.37 W/m2 CLR
09:30 14.1 °C -2.8 °C 1008 hPa West 20.4 km/h 20.4 km/h 31% 0 mm WeatherDisplay:10.37 W/m2 CLR
09:35 14.2 °C -3.1 °C 1008 hPa WNW 22.2 km/h 22.2 km/h 30% 0 mm WeatherDisplay:10.37 W/m2 CLR
09:40 14.3 °C -3.1 °C 1007.7 hPa SSW 18.5 km/h 18.5 km/h 30% 0 mm WeatherDisplay:10.37 W/m2 CLR
09:45 14.3 °C -2.6 °C 1008 hPa West 17.7 km/h 17.7 km/h 31% 0 mm WeatherDisplay:10.37 W/m2 CLR
09:50 14.4 °C -2.9 °C 1008 hPa South 27.8 km/h 27.8 km/h 30% 0 mm WeatherDisplay:10.37 W/m2 CLR
09:55 14.5 °C -2.9 °C 1008 hPa West 29.6 km/h 29.6 km/h 30% 0 mm WeatherDisplay:10.37 W/m2 CLR
10:00 14.6 °C -3.3 °C 1007.7 hPa West 31.5 km/h 31.5 km/h 29% 0 mm WeatherDisplay:10.37 W/m2 CLR
10:05 14.8 °C -3.6 °C 1007.7 hPa West 25.9 km/h 25.9 km/h 28% 0 mm WeatherDisplay:10.37 W/m2 CLR
10:10 15 °C -2.4 °C 1007.7 hPa SE 18.5 km/h 18.5 km/h 30% 0 mm WeatherDisplay:10.37 W/m2 CLR
10:15 15.1 °C -2.8 °C 1007.7 hPa South 20.4 km/h 20.4 km/h 29% 0 mm WeatherDisplay:10.37 W/m2 CLR
10:20 15.2 °C -2.8 °C 1007.7 hPa South 25.9 km/h 25.9 km/h 29% 0 mm WeatherDisplay:10.37 W/m2 CLR
10:25 15.2 °C -2.7 °C 1007.7 hPa West 35.4 km/h 35.4 km/h 29% 0 mm WeatherDisplay:10.37 W/m2 CLR
10:30 15.2 °C -2.7 °C 1007.3 hPa West 22.2 km/h 22.2 km/h 29% 0 mm WeatherDisplay:10.37 W/m2 CLR
10:35 15.3 °C -2.7 °C 1007.3 hPa SW 24.1 km/h 24.1 km/h 29% 0 mm WeatherDisplay:10.37 W/m2 CLR
10:40 15.4 °C -2.1 °C 1006.7 hPa WNW 18.5 km/h 18.5 km/h 30% 0 mm WeatherDisplay:10.37 W/m2 CLR
10:45 15.4 °C -2.1 °C 1006.7 hPa South 29.6 km/h 29.6 km/h 30% 0 mm WeatherDisplay:10.37 W/m2 CLR
10:50 15.3 °C -2.7 °C 1006.7 hPa SW 20.4 km/h 20.4 km/h 29% 0 mm WeatherDisplay:10.37 W/m2 CLR
10:55 15.1 °C -2.4 °C 1007 hPa WSW 16.7 km/h 16.7 km/h 30% 0 mm WeatherDisplay:10.37 W/m2 CLR
11:00 15.2 °C -2.8 °C 1007 hPa WNW 18.5 km/h 18.5 km/h 29% 0 mm WeatherDisplay:10.37 W/m2 CLR
11:05 15.1 °C -2.8 °C 1007 hPa North 24.1 km/h 24.1 km/h 29% 0 mm WeatherDisplay:10.37 W/m2 CLR
11:10 15.2 °C -2.8 °C 1006.7 hPa WSW 22.2 km/h 22.2 km/h 29% 0 mm WeatherDisplay:10.37 W/m2 CLR
11:15 15.2 °C -2.8 °C 1006.7 hPa WNW 25.9 km/h 25.9 km/h 29% 0 mm WeatherDisplay:10.37 W/m2 CLR
11:20 15.3 °C -2.6 °C 1006.3 hPa WNW 18.5 km/h 18.5 km/h 29% 0 mm WeatherDisplay:10.37 W/m2 CLR
11:25 15.4 °C -3.1 °C 1006 hPa SE 31.5 km/h 31.5 km/h 28% 0 mm WeatherDisplay:10.37 W/m2 CLR
11:30 15.5 °C -2.9 °C 1006 hPa WSW 29 km/h 29 km/h 28% 0 mm WeatherDisplay:10.37 W/m2 CLR
11:35 15.5 °C -2.9 °C 1006 hPa WNW 29.6 km/h 29.6 km/h 28% 0 mm WeatherDisplay:10.37 W/m2 CLR
11:40 15.7 °C -3.3 °C 1005.6 hPa SSE 25.9 km/h 25.9 km/h 27% 0 mm WeatherDisplay:10.37 W/m2 CLR
11:45 15.9 °C -2.6 °C 1005.6 hPa SW 22.2 km/h 22.2 km/h 28% 0 mm WeatherDisplay:10.37 W/m2 CLR
11:50 16 °C -2.5 °C 1005.6 hPa WSW 18.5 km/h 18.5 km/h 28% 0 mm WeatherDisplay:10.37 W/m2 CLR
11:55 16.1 °C -2.5 °C 1005.3 hPa WSW 31.5 km/h 31.5 km/h 28% 0 mm WeatherDisplay:10.37 W/m2 CLR
12:00 16.1 °C -2.9 °C 1005.3 hPa SSW 35.2 km/h 35.2 km/h 27% 0 mm WeatherDisplay:10.37 W/m2 CLR
12:05 16.1 °C -3.4 °C 1005 hPa NW 24.1 km/h 24.1 km/h 26% 0 mm WeatherDisplay:10.37 W/m2 CLR
12:10 16.3 °C -2.8 °C 1004.6 hPa West 24.1 km/h 24.1 km/h 27% 0 mm WeatherDisplay:10.37 W/m2 CLR
12:15 16.4 °C -2.2 °C 1004.3 hPa SW 14.8 km/h 14.8 km/h 28% 0 mm WeatherDisplay:10.37 W/m2 CLR
12:20 16.9 °C -2.3 °C 1004.3 hPa West 14.8 km/h 14.8 km/h 27% 0 mm WeatherDisplay:10.37 W/m2 CLR
12:25 17.2 °C -2 °C 1004.3 hPa WSW 16.7 km/h 16.7 km/h 27% 0 mm WeatherDisplay:10.37 W/m2 CLR
12:30 17.2 °C -1.1 °C 1003.9 hPa WSW 14.8 km/h 14.8 km/h 29% 0 mm WeatherDisplay:10.37 W/m2 CLR
12:35 17.1 °C -2.1 °C 1003.9 hPa WSW 11.1 km/h 11.1 km/h 27% 0 mm WeatherDisplay:10.37 W/m2 CLR
12:40 17 °C -2.2 °C 1003.9 hPa WNW 16.7 km/h 16.7 km/h 27% 0 mm WeatherDisplay:10.37 W/m2 CLR
12:45 16.9 °C -1.7 °C 1003.9 hPa SE 11.1 km/h 11.1 km/h 28% 0 mm WeatherDisplay:10.37 W/m2 CLR
12:50 17.2 °C -2 °C 1003.6 hPa WSW 27.8 km/h 27.8 km/h 27% 0 mm WeatherDisplay:10.37 W/m2 CLR
12:55 17.3 °C -2.9 °C 1003.9 hPa SSW 18.5 km/h 18.5 km/h 25% 0 mm WeatherDisplay:10.37 W/m2 CLR
13:00 17.2 °C -2.5 °C 1003.6 hPa SSW 18.5 km/h 18.5 km/h 26% 0 mm WeatherDisplay:10.37 W/m2 CLR
13:05 17.1 °C -2.6 °C 1001.6 hPa North 24.1 km/h 24.1 km/h 26% 0 mm WeatherDisplay:10.37 W/m2 CLR
13:10 17 °C -2.7 °C 1001.9 hPa ESE 20.4 km/h 20.4 km/h 26% 0 mm WeatherDisplay:10.37 W/m2 CLR
13:15 17 °C -2.2 °C 1001.9 hPa WSW 11.1 km/h 11.1 km/h 27% 0 mm WeatherDisplay:10.37 W/m2 CLR
13:20 17.2 °C -2.5 °C 1001.6 hPa WSW 18.5 km/h 18.5 km/h 26% 0 mm WeatherDisplay:10.37 W/m2 CLR
13:25 16.9 °C -2.3 °C 1001.6 hPa SW 16.7 km/h 16.7 km/h 27% 0 mm WeatherDisplay:10.37 W/m2 CLR
13:30 16.7 °C -2.4 °C 1001.6 hPa WSW 18.5 km/h 18.5 km/h 27% 0 mm WeatherDisplay:10.37 W/m2 CLR
13:35 16.7 °C -2.4 °C 1001.2 hPa West 18.5 km/h 18.5 km/h 27% 0 mm WeatherDisplay:10.37 W/m2 CLR
13:40 16.8 °C -2.3 °C 1001.2 hPa SW 18.5 km/h 18.5 km/h 27% 0 mm WeatherDisplay:10.37 W/m2 CLR
13:45 16.9 °C -2.2 °C 1001.2 hPa SSW 5.6 km/h 5.6 km/h 27% 0 mm WeatherDisplay:10.37 W/m2 CLR
13:50 17.2 °C -2 °C 1001.2 hPa NNW 9.3 km/h 9.3 km/h 27% 0 mm WeatherDisplay:10.37 W/m2 CLR
13:55 17.3 °C -2.4 °C 1000.9 hPa West 16.7 km/h 16.7 km/h 26% 0 mm WeatherDisplay:10.37 W/m2 CLR
14:01 17.1 °C -2.6 °C 1000.9 hPa WNW 22.5 km/h 22.5 km/h 26% 0 mm WeatherDisplay:10.37 W/m2 CLR
14:06 16.9 °C -2.8 °C 1001.2 hPa NW 16.7 km/h 16.7 km/h 26% 0 mm WeatherDisplay:10.37 W/m2 CLR
14:11 16.8 °C -2.3 °C 1000.9 hPa SSW 18.5 km/h 18.5 km/h 27% 0 mm WeatherDisplay:10.37 W/m2 CLR
14:16 16.7 °C -2.4 °C 1000.9 hPa West 12.9 km/h 12.9 km/h 27% 0 mm WeatherDisplay:10.37 W/m2 CLR
14:21 16.7 °C -2.4 °C 1000.6 hPa North 24.1 km/h 24.1 km/h 27% 0 mm WeatherDisplay:10.37 W/m2 CLR
14:26 16.6 °C -3 °C 1000.6 hPa WSW 25.9 km/h 25.9 km/h 26% 0 mm WeatherDisplay:10.37 W/m2 CLR
14:31 16.6 °C -2.6 °C 1000.6 hPa WSW 31.5 km/h 31.5 km/h 27% 0 mm WeatherDisplay:10.37 W/m2 CLR
14:36 16.6 °C -2.6 °C 1000.6 hPa WNW 20.4 km/h 20.4 km/h 27% 0 mm WeatherDisplay:10.37 W/m2 CLR
14:41 16.6 °C -3.1 °C 1000.6 hPa West 29 km/h 29 km/h 26% 0 mm WeatherDisplay:10.37 W/m2 CLR
14:46 16.6 °C -2.6 °C 1000.6 hPa West 18.5 km/h 18.5 km/h 27% 0 mm WeatherDisplay:10.37 W/m2 CLR
14:51 16.7 °C -2.9 °C 1000.6 hPa SW 18.5 km/h 18.5 km/h 26% 0 mm WeatherDisplay:10.37 W/m2 CLR
14:56 16.8 °C -2.3 °C 1000.6 hPa SW 11.1 km/h 11.1 km/h 27% 0 mm WeatherDisplay:10.37 W/m2 CLR
15:01 16.8 °C -2.8 °C 1000.6 hPa SSE 20.4 km/h 20.4 km/h 26% 0 mm WeatherDisplay:10.37 W/m2 CLR
15:06 16.9 °C -3.3 °C 1000.6 hPa WSW 18.5 km/h 18.5 km/h 25% 0 mm WeatherDisplay:10.37 W/m2 CLR
15:11 16.7 °C -3.4 °C 1000.2 hPa NNE 16.7 km/h 16.7 km/h 25% 0 mm WeatherDisplay:10.37 W/m2 CLR
15:16 16.6 °C -4.1 °C 1000.2 hPa WNW 25.9 km/h 25.9 km/h 24% 0 mm WeatherDisplay:10.37 W/m2 CLR
15:21 16.4 °C -3.7 °C 1000.6 hPa SSE 20.4 km/h 20.4 km/h 25% 0 mm WeatherDisplay:10.37 W/m2 CLR
15:26 16.3 °C -3.8 °C 1000.6 hPa WSW 18.5 km/h 18.5 km/h 25% 0 mm WeatherDisplay:10.37 W/m2 CLR
15:31 16.2 °C -3.4 °C 1000.6 hPa SW 9.7 km/h 9.7 km/h 26% 0 mm WeatherDisplay:10.37 W/m2 CLR
15:36 15.9 °C -3.6 °C 1000.6 hPa SW 25.9 km/h 25.9 km/h 26% 0 mm WeatherDisplay:10.37 W/m2 CLR
15:41 15.7 °C -3.8 °C 1000.9 hPa West 33.3 km/h 33.3 km/h 26% 0 mm WeatherDisplay:10.37 W/m2 CLR
15:46 15.6 °C -3.9 °C 1000.9 hPa SSW 14.8 km/h 14.8 km/h 26% 0 mm WeatherDisplay:10.37 W/m2 CLR
15:51 15.4 °C -3.6 °C 1000.9 hPa NW 7.4 km/h 7.4 km/h 27% 0 mm WeatherDisplay:10.37 W/m2 CLR
15:56 15.2 °C -3.7 °C 1001.2 hPa WSW 11.1 km/h 11.1 km/h 27% 0 mm WeatherDisplay:10.37 W/m2 CLR
16:01 15 °C -3.4 °C 1001.2 hPa West 20.4 km/h 20.4 km/h 28% 0 mm WeatherDisplay:10.37 W/m2 CLR
16:06 15 °C -3.9 °C 1000.9 hPa South 25.9 km/h 25.9 km/h 27% 0 mm WeatherDisplay:10.37 W/m2 CLR
16:11 14.8 °C -4 °C 1000.9 hPa WNW 18.5 km/h 18.5 km/h 27% 0 mm WeatherDisplay:10.37 W/m2 CLR
16:16 14.7 °C -4.1 °C 1000.9 hPa WSW 17.7 km/h 17.7 km/h 27% 0 mm WeatherDisplay:10.37 W/m2 CLR
16:21 14.7 °C -4.2 °C 1000.9 hPa West 18.5 km/h 18.5 km/h 27% 0 mm WeatherDisplay:10.37 W/m2 CLR
16:26 14.6 °C -4.3 °C 1001.2 hPa WSW 16.1 km/h 16.1 km/h 27% 0 mm WeatherDisplay:10.37 W/m2 CLR
16:31 14.4 °C -3.9 °C 1001.2 hPa WSW 14.8 km/h 14.8 km/h 28% 0 mm WeatherDisplay:10.37 W/m2 CLR
16:36 14.2 °C -5.1 °C 1000.9 hPa West 24.1 km/h 24.1 km/h 26% 0 mm WeatherDisplay:10.37 W/m2 CLR
16:41 14.1 °C -4.2 °C 1001.2 hPa WSW 18.5 km/h 18.5 km/h 28% 0 mm WeatherDisplay:10.37 W/m2 CLR
16:46 13.9 °C -4.3 °C 1001.2 hPa West 16.7 km/h 16.7 km/h 28% 0 mm WeatherDisplay:10.37 W/m2 CLR
16:51 13.7 °C -5 °C 1001.2 hPa West 16.7 km/h 16.7 km/h 27% 0 mm WeatherDisplay:10.37 W/m2 CLR
16:56 13.6 °C -4.6 °C 1001.2 hPa SW 9.3 km/h 9.3 km/h 28% 0 mm WeatherDisplay:10.37 W/m2 CLR
17:01 13.3 °C -4.4 °C 1001.6 hPa West 16.7 km/h 16.7 km/h 29% 0 mm WeatherDisplay:10.37 W/m2 CLR
17:06 12.9 °C -4.7 °C 1001.9 hPa WSW 11.1 km/h 11.1 km/h 29% 0 mm WeatherDisplay:10.37 W/m2 CLR
17:11 12.6 °C -4.1 °C 1001.9 hPa West 9.3 km/h 9.3 km/h 31% 0 mm WeatherDisplay:10.37 W/m2 CLR
17:16 12.2 °C -4.4 °C 1001.9 hPa West 9.3 km/h 9.3 km/h 31% 0 mm WeatherDisplay:10.37 W/m2 CLR
17:21 11.9 °C -4.7 °C 1001.9 hPa West 14.8 km/h 14.8 km/h 31% 0 mm WeatherDisplay:10.37 W/m2 CLR
17:26 11.8 °C -4.8 °C 1002.3 hPa WSW 18.5 km/h 18.5 km/h 31% 0 mm WeatherDisplay:10.37 W/m2 CLR
17:31 11.6 °C -5 °C 1002.3 hPa WNW 7.4 km/h 7.4 km/h 31% 0 mm WeatherDisplay:10.37 W/m2 CLR
17:36 11.4 °C -5.2 °C 1002.3 hPa NNE 5.6 km/h 5.6 km/h 31% 0 mm WeatherDisplay:10.37 W/m2 CLR
17:41 11.3 °C -5.3 °C 1002.3 hPa WNW 3.7 km/h 3.7 km/h 31% 0 mm WeatherDisplay:10.37 W/m2 CLR
17:47 11.1 °C -5.1 °C 1002.6 hPa WSW 14.8 km/h 14.8 km/h 32% 0 mm WeatherDisplay:10.37 W/m2 CLR
17:52 10.8 °C -5.2 °C 1002.3 hPa West 11.1 km/h 11.1 km/h 32% 0 mm WeatherDisplay:10.37 W/m2 CLR
17:57 10.7 °C -5 °C 1002.6 hPa SSW 7.4 km/h 7.4 km/h 33% 0 mm WeatherDisplay:10.37 W/m2 CLR
18:02 10.5 °C -5.1 °C 1001.9 hPa West 11.1 km/h 11.1 km/h 33% 0 mm WeatherDisplay:10.37 W/m2 CLR
18:07 10.6 °C -5.5 °C 1001.9 hPa West 18.5 km/h 18.5 km/h 32% 0 mm WeatherDisplay:10.37 W/m2 CLR
18:12 10.6 °C -5 °C 1001.9 hPa WSW 11.1 km/h 11.1 km/h 33% 0 mm WeatherDisplay:10.37 W/m2 CLR
18:17 10.5 °C -4.7 °C 1001.9 hPa West 5.6 km/h 5.6 km/h 34% 0 mm WeatherDisplay:10.37 W/m2 CLR
18:22 10.2 °C -5 °C 1002.3 hPa West 3.7 km/h 3.7 km/h 34% 0 mm WeatherDisplay:10.37 W/m2 CLR
18:27 9.8 °C -5 °C 1002.3 hPa West 9.3 km/h 9.3 km/h 35% 0 mm WeatherDisplay:10.37 W/m2 CLR
18:32 9.4 °C -4.9 °C 1002.3 hPa West 9.3 km/h 9.3 km/h 36% 0 mm WeatherDisplay:10.37 W/m2 CLR
18:37 9.2 °C -4.8 °C 1002.3 hPa West 7.4 km/h 7.4 km/h 37% 0 mm WeatherDisplay:10.37 W/m2 CLR
18:42 9 °C -4.9 °C 1002.6 hPa West 3.7 km/h 3.7 km/h 37% 0 mm WeatherDisplay:10.37 W/m2 CLR
18:47 8.8 °C -4.8 °C 1002.6 hPa West 3.7 km/h 3.7 km/h 38% 0 mm WeatherDisplay:10.37 W/m2 CLR
18:52 8.7 °C -4.9 °C 1002.9 hPa SSE 6.4 km/h 6.4 km/h 38% 0 mm WeatherDisplay:10.37 W/m2 CLR
18:57 8.6 °C -5.3 °C 1002.9 hPa WNW 6.4 km/h 6.4 km/h 37% 0 mm WeatherDisplay:10.37 W/m2 CLR
19:02 8.5 °C -5.4 °C 1002.9 hPa West 5.6 km/h 5.6 km/h 37% 0 mm WeatherDisplay:10.37 W/m2 CLR
19:07 8.4 °C -5.4 °C 1002.9 hPa Calm     37% 0 mm WeatherDisplay:10.37 W/m2 CLR
19:12 8.3 °C -4.9 °C 1002.9 hPa West 3.7 km/h 3.7 km/h 39% 0 mm WeatherDisplay:10.37 W/m2 CLR
19:17 8 °C -5.1 °C 1002.9 hPa Calm     39% 0 mm WeatherDisplay:10.37 W/m2 CLR
19:22 7.6 °C -5.5 °C 1002.9 hPa West 1.6 km/h 1.6 km/h 39% 0 mm WeatherDisplay:10.37 W/m2 CLR
19:27 7.4 °C -5.3 °C 1003.3 hPa Calm     40% 0 mm WeatherDisplay:10.37 W/m2 CLR
19:32 7.2 °C -4.9 °C 1003.3 hPa Calm     42% 0 mm WeatherDisplay:10.37 W/m2 CLR
19:37 6.8 °C -5.5 °C 1003.3 hPa Calm     41% 0 mm WeatherDisplay:10.37 W/m2 CLR
19:42 6.7 °C -5.7 °C 1003.3 hPa West 1.9 km/h   41% 0 mm WeatherDisplay:10.37 W/m2 CLR
19:47 6.5 °C -5.2 °C 1003.6 hPa West 1.9 km/h 1.9 km/h 43% 0 mm WeatherDisplay:10.37 W/m2 CLR
19:52 6.3 °C -5.4 °C 1003.9 hPa West 1.9 km/h 1.9 km/h 43% 0 mm WeatherDisplay:10.37 W/m2 CLR
19:57 6.1 °C -5.6 °C 1003.9 hPa West 1.9 km/h   43% 0 mm WeatherDisplay:10.37 W/m2 CLR
20:02 6.1 °C -5.9 °C 1003.6 hPa Calm     42% 0 mm WeatherDisplay:10.37 W/m2 CLR
20:07 6.1 °C -5.9 °C 1003.6 hPa West 1.9 km/h   42% 0 mm WeatherDisplay:10.37 W/m2 CLR
20:12 6.4 °C -5.6 °C 1003.6 hPa Calm     42% 0 mm WeatherDisplay:10.37 W/m2 CLR
20:17 6.7 °C -5.7 °C 1003.6 hPa West 3.7 km/h 3.7 km/h 41% 0 mm WeatherDisplay:10.37 W/m2 CLR
20:22 7 °C -5.7 °C 1003.3 hPa West 1.9 km/h 1.9 km/h 40% 0 mm WeatherDisplay:10.37 W/m2 CLR
20:27 7.2 °C -5.5 °C 1003.3 hPa West 5.6 km/h 5.6 km/h 40% 0 mm WeatherDisplay:10.37 W/m2 CLR
20:32 7.3 °C -4.8 °C 1003.3 hPa West 1.9 km/h 1.9 km/h 42% 0 mm WeatherDisplay:10.37 W/m2 CLR
20:37 7.3 °C -4.8 °C 1003.3 hPa West 3.7 km/h 3.7 km/h 42% 0 mm WeatherDisplay:10.37 W/m2 CLR
20:42 7.3 °C -4.1 °C 1003.3 hPa West 6.4 km/h 6.4 km/h 44% 0 mm WeatherDisplay:10.37 W/m2 CLR
20:47 7.3 °C -4.2 °C 1003.3 hPa WSW 6.4 km/h 6.4 km/h 44% 0 mm WeatherDisplay:10.37 W/m2 CLR
20:52 7.2 °C -3.9 °C 1003.3 hPa West 5.6 km/h 5.6 km/h 45% 0 mm WeatherDisplay:10.37 W/m2 CLR
20:57 7.3 °C -3.9 °C 1003.3 hPa West 5.6 km/h 5.6 km/h 45% 0 mm WeatherDisplay:10.37 W/m2 CLR
21:02 7.3 °C -3.6 °C 1002.6 hPa West 3.7 km/h 3.7 km/h 46% 0 mm WeatherDisplay:10.37 W/m2 CLR
21:07 7.3 °C -3.6 °C 1002.9 hPa WNW 1.9 km/h 1.9 km/h 46% 0 mm WeatherDisplay:10.37 W/m2 CLR
21:12 7.4 °C -3.5 °C 1002.9 hPa West 5.6 km/h 5.6 km/h 46% 0 mm WeatherDisplay:10.37 W/m2 CLR
21:17 7.4 °C -3.4 °C 1002.6 hPa West 3.7 km/h 3.7 km/h 46% 0 mm WeatherDisplay:10.37 W/m2 CLR
21:22 7.4 °C -3.4 °C 1002.6 hPa WNW 3.2 km/h 3.2 km/h 46% 0 mm WeatherDisplay:10.37 W/m2 CLR
21:27 7.5 °C -3.4 °C 1002.3 hPa West 1.9 km/h 1.9 km/h 46% 0 mm WeatherDisplay:10.37 W/m2 CLR
21:32 7.4 °C -3.4 °C 1002.3 hPa West 7.4 km/h 7.4 km/h 46% 0 mm WeatherDisplay:10.37 W/m2 CLR
21:37 7.4 °C -3.2 °C 1002.9 hPa WNW 3.7 km/h 3.7 km/h 47% 0 mm WeatherDisplay:10.37 W/m2 CLR
21:42 7.3 °C -3.3 °C 1002.6 hPa West 3.7 km/h 3.7 km/h 47% 0 mm WeatherDisplay:10.37 W/m2 CLR
21:47 7.2 °C -3.1 °C 1002.6 hPa West 4.8 km/h 4.8 km/h 48% 0 mm WeatherDisplay:10.37 W/m2 CLR
21:52 7.1 °C -3.5 °C 1002.6 hPa West 5.6 km/h 5.6 km/h 47% 0 mm WeatherDisplay:10.37 W/m2 CLR
21:57 7 °C -3.6 °C 1002.6 hPa West 5.6 km/h 5.6 km/h 47% 0 mm WeatherDisplay:10.37 W/m2 CLR
22:02 7.2 °C -3.7 °C 1002.3 hPa WNW 9.3 km/h 9.3 km/h 46% 0 mm WeatherDisplay:10.37 W/m2 CLR
22:07 7.4 °C -3.7 °C 1002.3 hPa SW 7.4 km/h 7.4 km/h 45% 0 mm WeatherDisplay:10.37 W/m2 CLR
22:12 7.9 °C -3.6 °C 1002.3 hPa NW 5.6 km/h 5.6 km/h 44% 0 mm WeatherDisplay:10.37 W/m2 CLR
22:17 8.1 °C -3.7 °C 1001.6 hPa WNW 5.6 km/h 5.6 km/h 43% 0 mm WeatherDisplay:10.37 W/m2 CLR
22:22 8.2 °C -3.6 °C 1001.6 hPa WNW 8 km/h 8 km/h 43% 0 mm WeatherDisplay:10.37 W/m2 CLR
22:27 8.2 °C -3.7 °C 1001.2 hPa West 3.7 km/h 3.7 km/h 43% 0 mm WeatherDisplay:10.37 W/m2 CLR
22:32 7.9 °C -3.6 °C 1001.6 hPa West 7.4 km/h 7.4 km/h 44% 0 mm WeatherDisplay:10.37 W/m2 CLR
22:37 7.7 °C -3.5 °C 1001.6 hPa West 1.9 km/h 1.9 km/h 45% 0 mm WeatherDisplay:10.37 W/m2 CLR
22:42 7.4 °C -3.8 °C 1001.6 hPa West 5.6 km/h 5.6 km/h 45% 0 mm WeatherDisplay:10.37 W/m2 CLR
22:47 7.1 °C -3.7 °C 1001.6 hPa West 5.6 km/h 5.6 km/h 46% 0 mm WeatherDisplay:10.37 W/m2 CLR
22:53 6.8 °C -4 °C 1001.9 hPa WSW 3.7 km/h 3.7 km/h 46% 0 mm WeatherDisplay:10.37 W/m2 CLR
22:58 6.7 °C -4.2 °C 1001.9 hPa WSW 3.2 km/h 3.2 km/h 46% 0 mm WeatherDisplay:10.37 W/m2 CLR
23:03 6.5 °C -4.6 °C 1001.2 hPa WSW 3.7 km/h 3.7 km/h 45% 0 mm WeatherDisplay:10.37 W/m2 CLR
23:08 6.5 °C -4.6 °C 1001.6 hPa West 3.2 km/h 3.2 km/h 45% 0 mm WeatherDisplay:10.37 W/m2 CLR
23:13 6.6 °C -4.8 °C 1001.6 hPa SSW 3.7 km/h 3.7 km/h 44% 0 mm WeatherDisplay:10.37 W/m2 CLR
23:18 6.7 °C -4.7 °C 1001.6 hPa West 3.7 km/h 3.7 km/h 44% 0 mm WeatherDisplay:10.37 W/m2 CLR
23:23 6.8 °C -4.7 °C 1001.6 hPa SSW 3.7 km/h 3.7 km/h 44% 0 mm WeatherDisplay:10.37 W/m2 CLR
23:28 6.8 °C -4.9 °C 1001.6 hPa WSW 5.6 km/h 5.6 km/h 43% 0 mm WeatherDisplay:10.37 W/m2 CLR
23:33 6.9 °C -4.6 °C 1001.6 hPa West 1.9 km/h 1.9 km/h 44% 0 mm WeatherDisplay:10.37 W/m2 CLR
23:38 6.8 °C -4.7 °C 1001.2 hPa West 5.6 km/h   44% 0 mm WeatherDisplay:10.37 W/m2 CLR
23:43 6.7 °C -4.7 °C 1001.6 hPa WSW 9.3 km/h 9.3 km/h 44% 0 mm WeatherDisplay:10.37 W/m2 CLR
23:48 6.7 °C -5.3 °C 1001.2 hPa WNW 9.3 km/h 9.3 km/h 42% 0 mm WeatherDisplay:10.37 W/m2 CLR
23:53 7.2 °C -4.6 °C 1000.9 hPa WSW 5.6 km/h 5.6 km/h 43% 0 mm WeatherDisplay:10.37 W/m2 CLR
23:58 7.3 °C -4.8 °C 1000.9 hPa West 5.6 km/h 5.6 km/h 42% 0 mm WeatherDisplay:10.37 W/m2 CLR
Windsor Co Weather
Compliments of Weather Underground - 3 mb